createdAt,value
2017-01-26T14:45:19.881Z,926.79
2017-01-26T14:46:34.296Z,926.85
2017-01-26T14:47:48.678Z,926.99
2017-01-26T14:49:03.057Z,927.15
2017-01-26T14:50:16.760Z,926.89
2017-01-26T14:51:30.509Z,927.1
2017-01-26T14:52:45.097Z,926.93
2017-01-26T14:53:58.855Z,927.08
2017-01-26T14:55:12.560Z,926.89
2017-01-26T14:56:26.888Z,926.9
2017-01-26T14:57:40.606Z,926.71
2017-01-26T14:58:54.374Z,926.55
2017-01-26T15:00:08.137Z,926.49
2017-01-26T15:01:22.512Z,926.5
2017-01-26T15:02:36.877Z,926.43
2017-01-26T15:03:51.266Z,926.27
2017-01-26T15:05:05.616Z,926.18
2017-01-26T15:06:19.991Z,926.04
2017-01-26T15:07:34.357Z,926.17
2017-01-26T15:08:48.765Z,926.1
2017-01-26T15:10:01.838Z,926.05
2017-01-26T15:11:16.273Z,926.02
2017-01-26T15:12:30.634Z,925.99
2017-01-26T15:13:44.568Z,925.99
2017-01-26T15:14:58.301Z,925.99
2017-01-26T15:16:12.638Z,926.05
2017-01-26T15:17:26.971Z,926.03
2017-01-26T15:18:41.336Z,926.05
2017-01-26T15:19:55.667Z,926.07
2017-01-26T15:21:08.755Z,926.02
2017-01-26T15:22:21.183Z,926.1
2017-01-26T15:23:35.592Z,925.99
2017-01-26T15:24:49.995Z,926.04
2017-01-26T15:26:03.745Z,926.06
2017-01-26T15:27:17.500Z,926.06
2017-01-26T15:28:31.251Z,926.06
2017-01-26T15:29:45.636Z,926.13
2017-01-26T15:30:59.999Z,926.05
2017-01-26T15:32:14.399Z,926.16
2017-01-26T15:33:29.546Z,926.06
2017-01-26T15:34:43.935Z,926.12
2017-01-26T15:35:57.666Z,926.05
2017-01-26T15:37:12.029Z,926.16
2017-01-26T15:38:26.403Z,926.21
2017-01-26T15:39:41.000Z,926.14
2017-01-26T15:40:55.365Z,926.18
2017-01-26T15:42:09.733Z,926.17
2017-01-26T15:43:24.079Z,926.15
2017-01-26T15:44:37.137Z,926.17
2017-01-26T15:45:50.891Z,926.15
2017-01-26T15:47:04.646Z,926.18
2017-01-26T15:48:17.766Z,926.21
2017-01-26T15:49:31.511Z,926.22
2017-01-26T15:50:45.258Z,926.18
2017-01-26T15:51:58.343Z,926.21
2017-01-26T15:53:12.118Z,926.24
2017-01-26T15:54:25.828Z,926.25
2017-01-26T15:55:39.523Z,926.23
2017-01-26T15:56:52.621Z,926.2
2017-01-26T15:58:06.336Z,926.16
2017-01-26T15:59:19.421Z,926.12
2017-01-26T16:00:33.742Z,926.06
2017-01-26T16:01:48.070Z,926.06
2017-01-26T16:03:02.446Z,926
2017-01-26T16:04:15.564Z,926.01
2017-01-26T16:05:30.521Z,925.93
2017-01-26T16:06:44.264Z,925.96
2017-01-26T16:07:58.627Z,925.89
2017-01-26T16:09:12.336Z,925.87
2017-01-26T16:10:26.609Z,925.92
2017-01-26T16:11:39.688Z,925.89
2017-01-26T16:12:54.068Z,925.9
2017-01-26T16:14:08.452Z,925.89
2017-01-26T16:15:22.838Z,925.83
2017-01-26T16:16:36.562Z,925.82
2017-01-26T16:17:50.949Z,925.79
2017-01-26T16:19:04.663Z,925.72
2017-01-26T16:20:17.725Z,925.76
2017-01-26T16:21:32.096Z,925.76
2017-01-26T16:22:45.211Z,925.72
2017-01-26T16:23:59.605Z,925.7
2017-01-26T16:25:13.346Z,925.67
2017-01-26T16:26:27.741Z,925.65
2017-01-26T16:27:42.121Z,925.59
2017-01-26T16:28:56.457Z,925.58
2017-01-26T16:30:10.834Z,925.56
2017-01-26T16:31:24.568Z,925.56
2017-01-26T16:32:38.955Z,925.56
2017-01-26T16:33:53.335Z,925.57
2017-01-26T16:35:07.738Z,925.55
2017-01-26T16:36:22.143Z,925.58
2017-01-26T16:37:35.866Z,925.52
2017-01-26T16:38:49.632Z,925.48
2017-01-26T16:40:05.785Z,925.53
2017-01-26T16:41:18.899Z,925.45
2017-01-26T16:42:33.312Z,925.42
2017-01-26T16:43:47.702Z,925.47
2017-01-26T16:45:01.412Z,925.55
2017-01-26T16:46:15.825Z,925.54
2017-01-26T16:47:30.195Z,925.58
2017-01-26T16:48:44.573Z,925.61
2017-01-26T16:49:58.290Z,925.61
2017-01-26T16:51:12.628Z,925.65
2017-01-26T16:52:25.713Z,925.6
2017-01-26T16:53:40.061Z,925.66
2017-01-26T16:54:54.424Z,925.57
2017-01-26T16:56:08.837Z,925.66
2017-01-26T16:57:22.555Z,925.59
2017-01-26T16:58:36.266Z,925.57
2017-01-26T16:59:49.952Z,925.55
2017-01-26T17:01:04.324Z,925.48
2017-01-26T17:02:18.050Z,925.5
2017-01-26T17:03:31.134Z,925.49
2017-01-26T17:04:45.538Z,925.42
2017-01-26T17:05:59.949Z,925.41
2017-01-26T17:07:13.880Z,925.42
2017-01-26T17:08:27.557Z,925.35
2017-01-26T17:09:41.273Z,925.37
2017-01-26T17:10:54.989Z,925.3
2017-01-26T17:12:09.817Z,925.3
2017-01-26T17:13:24.200Z,925.34
2017-01-26T17:14:38.549Z,925.3
2017-01-26T17:15:52.305Z,925.33
2017-01-26T17:17:05.418Z,925.31
2017-01-26T17:18:19.766Z,925.27
2017-01-26T17:19:33.485Z,925.3
2017-01-26T17:20:47.849Z,925.32
2017-01-26T17:22:01.565Z,925.28
2017-01-26T17:23:15.291Z,925.31
2017-01-26T17:24:28.989Z,925.29
2017-01-26T17:25:44.487Z,925.33
2017-01-26T17:26:58.229Z,925.33
2017-01-26T17:28:12.793Z,925.32
2017-01-26T17:29:27.159Z,925.32
2017-01-26T17:30:40.916Z,925.33
2017-01-26T17:31:55.482Z,925.34
2017-01-26T17:33:09.646Z,925.31
2017-01-26T17:34:25.361Z,925.28
2017-01-26T17:35:39.752Z,925.3
2017-01-26T17:36:53.437Z,925.3
2017-01-26T17:38:07.792Z,925.29
2017-01-26T17:39:21.483Z,925.23
2017-01-26T17:40:35.931Z,925.22
2017-01-26T17:41:50.378Z,925.13
2017-01-26T17:43:04.769Z,925.15
2017-01-26T17:44:18.474Z,925.1
2017-01-26T17:45:31.581Z,925.06
2017-01-26T17:46:45.918Z,925.01
2017-01-26T17:48:00.317Z,924.98
2017-01-26T17:49:14.660Z,924.91
2017-01-26T17:50:29.020Z,924.87
2017-01-26T17:51:43.405Z,924.86
2017-01-26T17:52:57.788Z,924.84
2017-01-26T17:54:12.200Z,924.85
2017-01-26T17:55:25.919Z,924.89
2017-01-26T17:56:40.305Z,924.86
2017-01-26T17:57:55.409Z,924.85
2017-01-26T17:59:09.801Z,924.88
2017-01-26T18:00:23.812Z,924.83
2017-01-26T18:01:37.025Z,924.77
2017-01-26T18:02:51.383Z,924.79
2017-01-26T18:04:18.993Z,924.75
2017-01-26T18:05:33.380Z,924.79
2017-01-26T18:06:47.123Z,924.8
2017-01-26T18:08:01.483Z,924.82
2017-01-26T18:09:15.233Z,924.78
2017-01-26T18:10:28.940Z,924.76
2017-01-26T18:11:43.302Z,924.8
2017-01-26T18:12:57.652Z,924.77
2017-01-26T18:14:12.067Z,924.74
2017-01-26T18:15:25.779Z,924.77
2017-01-26T18:16:40.157Z,924.77
2017-01-26T18:17:53.241Z,924.79
2017-01-26T18:19:07.610Z,924.84
2017-01-26T18:20:21.325Z,924.81
2017-01-26T18:21:35.701Z,924.92
2017-01-26T18:22:49.449Z,924.89
2017-01-26T18:24:03.825Z,924.85
2017-01-26T18:25:17.528Z,924.79
2017-01-26T18:26:30.606Z,924.85
2017-01-26T18:27:45.006Z,924.9
2017-01-26T18:28:59.434Z,924.87
2017-01-26T18:30:13.228Z,924.88
2017-01-26T18:31:26.343Z,924.81
2017-01-26T18:32:41.246Z,924.88
2017-01-26T18:33:54.994Z,924.84
2017-01-26T18:35:09.394Z,924.77
2017-01-26T18:36:22.496Z,924.73
2017-01-26T18:37:36.226Z,924.77
2017-01-26T18:38:50.600Z,924.77
2017-01-26T18:40:04.954Z,924.74
2017-01-26T18:41:18.702Z,924.79
2017-01-26T18:42:33.100Z,924.78
2017-01-26T18:43:49.196Z,924.75
2017-01-26T18:45:03.580Z,924.76
2017-01-26T18:46:16.683Z,924.78
2017-01-26T18:47:31.055Z,924.74
2017-01-26T18:48:45.410Z,924.78
2017-01-26T18:49:58.482Z,924.79
2017-01-26T18:51:12.207Z,924.73
2017-01-26T18:52:26.582Z,924.71
2017-01-26T18:53:40.945Z,924.72
2017-01-26T18:54:55.322Z,924.75
2017-01-26T18:56:09.669Z,924.68
2017-01-26T18:57:22.743Z,924.69
2017-01-26T18:58:37.088Z,924.75
2017-01-26T18:59:50.788Z,924.8
2017-01-26T19:01:05.153Z,924.73
2017-01-26T19:02:19.523Z,924.68
2017-01-26T19:03:33.279Z,924.73
2017-01-26T19:04:47.646Z,924.7
2017-01-26T19:06:00.722Z,924.72
2017-01-26T19:07:13.789Z,924.75
2017-01-26T19:08:27.494Z,924.73
2017-01-26T19:09:41.899Z,924.73
2017-01-26T19:10:56.374Z,924.77
2017-01-26T19:12:11.547Z,924.73
2017-01-26T19:13:25.349Z,924.74
2017-01-26T19:14:39.735Z,924.75
2017-01-26T19:15:54.146Z,924.77
2017-01-26T19:17:07.213Z,924.75
2017-01-26T19:18:21.564Z,924.74
2017-01-26T19:19:35.780Z,924.76
2017-01-26T19:20:50.198Z,924.76
2017-01-26T19:22:04.588Z,924.77
2017-01-26T19:23:18.952Z,924.74
2017-01-26T19:24:33.423Z,924.71
2017-01-26T19:25:47.779Z,924.74
2017-01-26T19:27:00.912Z,924.69
2017-01-26T19:28:14.196Z,924.72
2017-01-26T19:29:28.560Z,924.73
2017-01-26T19:30:42.946Z,924.76
2017-01-26T19:31:56.043Z,924.74
2017-01-26T19:33:09.787Z,924.74
2017-01-26T19:34:23.527Z,924.76
2017-01-26T19:35:37.272Z,924.72
2017-01-26T19:36:52.869Z,924.72
2017-01-26T19:38:07.225Z,924.71
2017-01-26T19:39:20.301Z,924.69
2017-01-26T19:40:34.364Z,924.72
2017-01-26T19:41:48.709Z,924.73
2017-01-26T19:43:03.071Z,924.73
2017-01-26T19:44:17.451Z,924.66
2017-01-26T19:45:31.820Z,924.65
2017-01-26T19:46:46.220Z,924.67
2017-01-26T19:48:00.574Z,924.64
2017-01-26T19:49:16.370Z,924.65
2017-01-26T19:50:30.518Z,924.68
2017-01-26T19:51:44.884Z,924.63
2017-01-26T19:52:58.646Z,924.63
2017-01-26T19:54:12.361Z,924.6
2017-01-26T19:55:26.740Z,924.57
2017-01-26T19:56:41.094Z,924.6
2017-01-26T19:57:54.847Z,924.59
2017-01-26T19:59:09.544Z,924.62
2017-01-26T20:00:25.503Z,924.61
2017-01-26T20:01:39.860Z,924.68
2017-01-26T20:02:54.267Z,924.6
2017-01-26T20:04:09.031Z,924.59
2017-01-26T20:05:23.565Z,924.5
2017-01-26T20:06:37.305Z,924.55
2017-01-26T20:07:51.664Z,924.57
2017-01-26T20:09:06.022Z,924.56
2017-01-26T20:10:19.747Z,924.56
2017-01-26T20:11:32.822Z,924.59
2017-01-26T20:12:45.895Z,924.62
2017-01-26T20:14:00.266Z,924.59
2017-01-26T20:15:12.712Z,924.61
2017-01-26T20:16:27.094Z,924.59
2017-01-26T20:17:41.447Z,924.56
2017-01-26T20:18:55.843Z,924.56
2017-01-26T20:20:09.548Z,924.51
2017-01-26T20:21:23.898Z,924.54
2017-01-26T20:22:37.617Z,924.51
2017-01-26T20:23:51.377Z,924.51
2017-01-26T20:25:05.740Z,924.53
2017-01-26T20:26:19.443Z,924.56
2017-01-26T20:27:33.817Z,924.58
2017-01-26T20:28:49.961Z,924.61
2017-01-26T20:30:04.654Z,924.65
2017-01-26T20:31:19.023Z,924.59
2017-01-26T20:32:33.384Z,924.61
2017-01-26T20:33:47.762Z,924.56
2017-01-26T20:35:02.180Z,924.5
2017-01-26T20:36:16.581Z,924.44
2017-01-26T20:37:31.174Z,924.49
2017-01-26T20:38:44.902Z,924.46
2017-01-26T20:39:59.289Z,924.46
2017-01-26T20:41:13.678Z,924.48
2017-01-26T20:42:28.900Z,924.47
2017-01-26T20:43:45.403Z,924.49
2017-01-26T20:44:59.132Z,924.5
2017-01-26T20:46:16.531Z,924.54
2017-01-26T20:47:30.866Z,924.5
2017-01-26T20:48:44.591Z,924.5
2017-01-26T20:49:58.336Z,924.51
2017-01-26T20:51:13.011Z,924.51
2017-01-26T20:52:27.394Z,924.5
2017-01-26T20:53:41.824Z,924.53
2017-01-26T20:54:56.204Z,924.53
2017-01-26T20:56:09.962Z,924.57
2017-01-26T20:57:24.322Z,924.58
2017-01-26T20:58:38.680Z,924.6
2017-01-26T20:59:53.062Z,924.55
2017-01-26T21:01:06.774Z,924.6
2017-01-26T21:02:21.188Z,924.59
2017-01-26T21:03:34.917Z,924.61
2017-01-26T21:04:48.629Z,924.57
2017-01-26T21:06:02.320Z,924.56
2017-01-26T21:07:16.013Z,924.56
2017-01-26T21:08:30.446Z,924.57
2017-01-26T21:09:45.046Z,924.61
2017-01-26T21:10:59.577Z,924.62
2017-01-26T21:12:13.953Z,924.62
2017-01-26T21:13:27.696Z,924.64
2017-01-26T21:14:42.358Z,924.6
2017-01-26T21:15:56.098Z,924.64
2017-01-26T21:17:09.841Z,924.6
2017-01-26T21:18:24.207Z,924.54
2017-01-26T21:19:38.563Z,924.56
2017-01-26T21:20:52.951Z,924.6
2017-01-26T21:22:07.492Z,924.69
2017-01-26T21:23:21.852Z,924.69
2017-01-26T21:24:36.195Z,924.77
2017-01-26T21:25:50.548Z,924.74
2017-01-26T21:27:03.634Z,924.71
2017-01-26T21:28:16.749Z,924.72
2017-01-26T21:29:30.467Z,924.73
2017-01-26T21:30:44.846Z,924.64
2017-01-26T21:31:58.575Z,924.62
2017-01-26T21:33:12.989Z,924.58
2017-01-26T21:34:27.338Z,924.57
2017-01-26T21:35:41.275Z,924.56
2017-01-26T21:36:55.628Z,924.59
2017-01-26T21:38:09.993Z,924.66
2017-01-26T21:39:23.132Z,924.67
2017-01-26T21:40:37.543Z,924.69
2017-01-26T21:41:51.938Z,924.75
2017-01-26T21:43:06.303Z,924.77
2017-01-26T21:44:19.393Z,924.8
2017-01-26T21:45:33.754Z,924.81
2017-01-26T21:46:47.452Z,924.83
2017-01-26T21:48:01.843Z,924.85
2017-01-26T21:49:16.213Z,924.84
2017-01-26T21:50:30.591Z,924.8
2017-01-26T21:51:44.967Z,924.77
2017-01-26T21:52:58.077Z,924.8
2017-01-26T21:54:12.425Z,924.81
2017-01-26T21:55:26.170Z,924.83
2017-01-26T21:56:40.549Z,924.83
2017-01-26T21:57:54.928Z,924.84
2017-01-26T21:59:09.305Z,924.83
2017-01-26T22:00:23.045Z,924.85
2017-01-26T22:01:36.738Z,924.89
2017-01-26T22:02:51.146Z,924.86
2017-01-26T22:04:05.103Z,924.91
2017-01-26T22:05:19.459Z,924.93
2017-01-26T22:06:33.814Z,924.95
2017-01-26T22:07:48.388Z,924.95
2017-01-26T22:09:02.747Z,924.97
2017-01-26T22:10:15.831Z,924.92
2017-01-26T22:11:30.279Z,924.9
2017-01-26T22:12:44.657Z,924.93
2017-01-26T22:13:59.055Z,924.91
2017-01-26T22:15:12.123Z,924.92
2017-01-26T22:16:25.842Z,924.95
2017-01-26T22:17:40.248Z,924.96
2017-01-26T22:18:54.645Z,925.05
2017-01-26T22:20:09.003Z,925.04
2017-01-26T22:21:23.420Z,925.04
2017-01-26T22:22:37.802Z,925.02
2017-01-26T22:23:51.587Z,925.02
2017-01-26T22:25:05.976Z,925.07
2017-01-26T22:26:19.690Z,925.06
2017-01-26T22:27:34.033Z,925.09
2017-01-26T22:28:48.368Z,925.1
2017-01-26T22:30:02.730Z,925.19
2017-01-26T22:31:15.828Z,925.22
2017-01-26T22:32:30.232Z,925.27
2017-01-26T22:33:44.581Z,925.27
2017-01-26T22:34:58.957Z,925.32
2017-01-26T22:36:12.707Z,925.33
2017-01-26T22:37:27.040Z,925.34
2017-01-26T22:38:42.800Z,925.34
2017-01-26T22:39:57.176Z,925.35
2017-01-26T22:41:11.561Z,925.3
2017-01-26T22:42:25.292Z,925.36
2017-01-26T22:43:39.673Z,925.35
2017-01-26T22:44:52.166Z,925.38
2017-01-26T22:46:05.914Z,925.45
2017-01-26T22:47:20.255Z,925.41
2017-01-26T22:48:33.979Z,925.43
2017-01-26T22:49:47.722Z,925.4
2017-01-26T22:51:01.464Z,925.43
2017-01-26T22:52:15.184Z,925.44
2017-01-26T22:53:29.510Z,925.44
2017-01-26T22:54:43.212Z,925.43
2017-01-26T22:55:57.545Z,925.42
2017-01-26T22:57:11.928Z,925.45
2017-01-26T22:58:26.287Z,925.45
2017-01-26T22:59:40.665Z,925.49
2017-01-26T23:00:54.432Z,925.53
2017-01-26T23:02:08.152Z,925.5
2017-01-26T23:03:21.903Z,925.57
2017-01-26T23:04:35.591Z,925.62
2017-01-26T23:05:49.981Z,925.59
2017-01-26T23:07:04.356Z,925.61
2017-01-26T23:08:18.711Z,925.58
2017-01-26T23:09:32.454Z,925.58
2017-01-26T23:10:46.179Z,925.59
2017-01-26T23:12:00.546Z,925.58
2017-01-26T23:13:14.267Z,925.6
2017-01-26T23:14:28.630Z,925.64
2017-01-26T23:15:42.330Z,925.66
2017-01-26T23:16:56.708Z,925.67
2017-01-26T23:18:11.058Z,925.67
2017-01-26T23:19:25.424Z,925.67
2017-01-26T23:20:39.839Z,925.74
2017-01-26T23:21:54.212Z,925.78
2017-01-26T23:23:07.283Z,925.77
2017-01-26T23:24:21.056Z,925.81
2017-01-26T23:25:35.448Z,925.81
2017-01-26T23:26:48.509Z,925.8
2017-01-26T23:28:02.262Z,925.8
2017-01-26T23:29:15.977Z,925.79
2017-01-26T23:30:30.291Z,925.78
2017-01-26T23:31:44.634Z,925.77
2017-01-26T23:32:58.404Z,925.8
2017-01-26T23:34:12.107Z,925.8
2017-01-26T23:35:26.492Z,925.79
2017-01-26T23:36:40.877Z,925.76
2017-01-26T23:37:54.609Z,925.82
2017-01-26T23:39:09.047Z,925.82
2017-01-26T23:40:22.755Z,925.81
2017-01-26T23:41:37.134Z,925.81
2017-01-26T23:42:51.522Z,925.83
2017-01-26T23:44:05.896Z,925.8
2017-01-26T23:45:19.602Z,925.77
2017-01-26T23:46:33.945Z,925.8
2017-01-26T23:47:48.290Z,925.8
2017-01-26T23:49:02.653Z,925.83
2017-01-26T23:50:17.012Z,925.82
2017-01-26T23:51:31.355Z,925.83
2017-01-26T23:52:45.736Z,925.82
2017-01-26T23:54:00.091Z,925.85
2017-01-26T23:55:13.161Z,925.88
2017-01-26T23:56:26.867Z,925.87
2017-01-26T23:57:41.217Z,925.88
2017-01-26T23:58:54.312Z,925.91
